Time;durP1;ratioP1;P1;durP2;ratioP2;P2;SDS_P1;SDS_P2;PMS_P1;PMS_P2;Temp;Humidity;BMP_temperature;BMP_pressure;BME280_temperature;BME280_humidity;BME280_pressure;Samples;Min_cycle;Max_cycle;Signal;HPM_P1;HPM_P2
2023/06/25 00:01:13;;;;;;;7.60;7.40;;;;;;;-145.94;54.41;76455.72;5114200;28;20251;-68
2023/06/25 00:03:39;;;;;;;7.50;7.23;;;;;;;-145.94;54.30;76459.81;5114215;28;20193;-68
2023/06/25 00:06:06;;;;;;;7.90;7.50;;;;;;;-145.94;54.36;76455.72;5114200;28;20674;-68
2023/06/25 00:08:33;;;;;;;7.33;6.90;;;;;;;-145.94;54.61;76455.72;5114089;28;20181;-68
2023/06/25 00:11:00;;;;;;;7.10;6.90;;;;;;;-145.94;54.83;76451.66;5095800;28;20224;-68
2023/06/25 00:13:26;;;;;;;7.40;7.20;;;;;;;-145.94;55.07;76459.81;5114063;28;20189;-67
2023/06/25 00:15:52;;;;;;;7.37;7.10;;;;;;;-145.94;55.57;76465.94;5114013;28;20196;-67
2023/06/25 00:18:19;;;;;;;6.67;6.37;;;;;;;-145.94;55.84;76467.97;5113953;28;20205;-67
2023/06/25 00:20:46;;;;;;;7.03;6.83;;;;;;;-145.94;55.81;76476.13;5114186;28;20205;-67
2023/06/25 00:23:13;;;;;;;7.17;6.87;;;;;;;-145.94;56.25;76478.16;5114188;28;20273;-67
2023/06/25 00:25:39;;;;;;;6.70;6.47;;;;;;;-145.94;56.23;76474.09;5113928;28;20189;-67
2023/06/25 00:28:08;;;;;;;6.70;6.30;;;;;;;-145.94;56.29;76478.16;5113871;28;20234;-67
2023/06/25 00:30:37;;;;;;;7.67;7.30;;;;;;;-145.94;56.07;76476.13;5113789;28;20209;-67
2023/06/25 00:33:04;;;;;;;6.60;6.20;;;;;;;-145.94;55.95;76478.16;5113783;28;20180;-67
2023/06/25 00:36:05;;;;;;;7.47;7.27;;;;;;;-145.94;55.79;76476.13;5095520;28;20677;-67
2023/06/25 00:38:34;;;;;;;7.60;7.27;;;;;;;-145.94;55.69;76482.25;5114223;28;20246;-67
2023/06/25 00:41:01;;;;;;;6.60;6.40;;;;;;;-145.94;55.50;76482.25;5114223;28;20254;-68
2023/06/25 00:43:27;;;;;;;7.53;7.03;;;;;;;-145.94;55.07;76482.25;5095494;28;20193;-67
2023/06/25 00:45:53;;;;;;;7.30;6.93;;;;;;;-145.94;54.81;76484.28;5117725;28;20184;-67
2023/06/25 00:48:22;;;;;;;7.63;7.50;;;;;;;-145.94;55.01;76488.34;5120510;28;20242;-67
2023/06/25 00:50:50;;;;;;;6.87;6.60;;;;;;;-145.94;54.82;76488.34;5102104;28;20265;-67
2023/06/25 00:53:17;;;;;;;7.90;7.67;;;;;;;-145.94;55.02;76488.34;5120970;28;20242;-67
2023/06/25 00:55:50;;;;;;;8.13;7.73;;;;;;;-145.94;55.29;76482.25;5120402;28;20196;-67
2023/06/25 00:58:20;;;;;;;7.97;7.73;;;;;;;-145.94;56.09;76488.34;5120571;28;20547;-67
2023/06/25 01:00:48;;;;;;;7.63;7.40;;;;;;;-145.94;56.44;76488.34;5120315;28;20205;-67
2023/06/25 01:03:26;;;;;;;8.27;7.70;;;;;;;-145.94;56.60;76496.50;5102066;28;20188;-67
2023/06/25 01:06:06;;;;;;;7.87;7.37;;;;;;;-145.94;56.73;76498.56;5120900;28;20255;-67
2023/06/25 01:08:41;;;;;;;7.50;7.20;;;;;;;-145.94;57.11;76504.66;5103489;28;20180;-67
2023/06/25 01:11:10;;;;;;;7.70;7.37;;;;;;;-145.94;57.10;76504.66;5120239;28;20205;-67
2023/06/25 01:13:36;;;;;;;7.07;6.90;;;;;;;-145.94;57.68;76506.72;5120767;28;20226;-67
2023/06/25 01:16:03;;;;;;;7.83;7.10;;;;;;;-145.94;57.73;76512.81;5101950;28;20250;-67
2023/06/25 01:18:30;;;;;;;6.77;6.57;;;;;;;-145.94;57.98;76512.81;5101838;28;20273;-67
2023/06/25 01:20:57;;;;;;;7.30;7.00;;;;;;;-145.94;58.18;76514.88;5120991;28;20204;-68
2023/06/25 01:23:23;;;;;;;7.57;7.20;;;;;;;-145.94;58.19;76516.91;5101827;28;20192;-68
2023/06/25 01:25:50;;;;;;;7.50;7.10;;;;;;;-145.94;58.49;76518.94;5120170;28;20192;-68
2023/06/25 01:28:20;;;;;;;8.07;7.87;;;;;;;-145.94;58.78;76520.97;5120436;28;20185;-68
2023/06/25 01:30:48;;;;;;;8.67;8.10;;;;;;;-145.94;58.89;76523.03;5119925;28;20212;-67
2023/06/25 01:33:15;;;;;;;8.03;7.73;;;;;;;-145.94;58.82;76516.91;5101778;28;20264;-67
2023/06/25 01:35:42;;;;;;;8.23;7.90;;;;;;;-145.94;58.76;76518.94;5120605;28;20181;-67
2023/06/25 01:38:09;;;;;;;7.77;7.53;;;;;;;-145.94;58.84;76527.09;5101788;28;20193;-67
2023/06/25 01:40:35;;;;;;;8.07;7.87;;;;;;;-145.94;58.97;76527.09;5119879;28;20209;-67
2023/06/25 01:43:02;;;;;;;8.83;8.17;;;;;;;-145.94;59.29;76523.03;5119904;28;20188;-67
2023/06/25 01:45:28;;;;;;;7.90;7.70;;;;;;;-145.94;59.58;76529.13;5101690;28;20250;-67
2023/06/25 01:47:55;;;;;;;8.53;8.03;;;;;;;-145.94;59.80;76520.97;5119991;28;20320;-67
2023/06/25 01:50:23;;;;;;;8.37;7.93;;;;;;;-145.94;59.60;76527.09;5101491;28;20209;-67
2023/06/25 01:52:50;;;;;;;8.23;7.57;;;;;;;-145.94;59.57;76533.22;5120170;28;20177;-67
2023/06/25 01:55:16;;;;;;;8.40;8.10;;;;;;;-145.94;59.60;76535.25;5101615;28;20655;-67
2023/06/25 01:57:43;;;;;;;8.57;8.00;;;;;;;-145.94;60.09;76539.34;5098361;28;20193;-67
2023/06/25 02:00:11;;;;;;;8.10;7.80;;;;;;;-145.94;60.14;76537.28;5098261;28;20270;-67
2023/06/25 02:02:43;;;;;;;9.43;8.93;;;;;;;-145.94;60.36;76535.25;5117227;28;20170;-67
2023/06/25 02:05:11;;;;;;;8.67;8.07;;;;;;;-145.94;60.45;76535.25;5116757;28;20260;-67
2023/06/25 02:07:37;;;;;;;9.47;8.93;;;;;;;-145.94;60.76;76531.19;5098152;28;20688;-67
2023/06/25 02:10:05;;;;;;;9.43;8.87;;;;;;;-145.94;61.00;76537.28;5116924;28;20592;-68
2023/06/25 02:12:31;;;;;;;8.07;7.67;;;;;;;-145.94;60.85;76539.34;5098382;28;20189;-68
2023/06/25 02:14:58;;;;;;;8.77;8.17;;;;;;;-145.94;61.16;76539.34;5098055;28;20220;-68
2023/06/25 02:17:24;;;;;;;8.63;8.33;;;;;;;-145.94;61.48;76541.38;5098007;28;20189;-67
2023/06/25 02:19:51;;;;;;;9.60;8.67;;;;;;;-145.94;61.65;76543.41;5116399;28;20209;-68
2023/06/25 02:22:17;;;;;;;8.47;7.97;;;;;;;-145.94;61.42;76541.38;5116488;28;20708;-67
2023/06/25 02:24:44;;;;;;;9.23;8.43;;;;;;;-145.94;61.68;76541.38;5097873;28;20193;-67
2023/06/25 02:27:10;;;;;;;10.17;9.47;;;;;;;-145.94;61.73;76537.28;5097869;28;20196;-67
2023/06/25 02:29:37;;;;;;;9.63;8.60;;;;;;;-145.94;61.57;76539.34;5115854;28;20193;-67
2023/06/25 02:32:04;;;;;;;9.33;8.83;;;;;;;-145.94;61.56;76539.34;5116256;28;20197;-67
2023/06/25 02:34:30;;;;;;;9.40;8.90;;;;;;;-145.94;61.79;76543.41;5116261;28;20268;-67
2023/06/25 02:36:57;;;;;;;8.37;8.00;;;;;;;-145.94;61.82;76547.50;5115909;28;20275;-67
2023/06/25 02:39:23;;;;;;;9.23;8.80;;;;;;;-145.94;61.97;76549.53;5115996;28;20288;-67
2023/06/25 02:41:50;;;;;;;10.97;8.80;;;;;;;-145.94;62.17;76553.59;5115842;28;20181;-67
2023/06/25 02:44:16;;;;;;;9.60;9.10;;;;;;;-145.94;62.17;76547.50;5097543;28;20193;-67
2023/06/25 02:46:43;;;;;;;8.53;8.30;;;;;;;-145.94;62.13;76551.56;5097432;28;20199;-67
2023/06/25 02:49:09;;;;;;;9.53;8.90;;;;;;;-145.94;62.19;76549.53;5097378;28;20189;-67
2023/06/25 02:51:36;;;;;;;9.63;9.13;;;;;;;-145.94;62.10;76553.59;5097234;28;20245;-67
2023/06/25 02:54:02;;;;;;;9.47;8.90;;;;;;;-145.94;62.13;76555.66;5115593;28;20185;-67
2023/06/25 02:56:29;;;;;;;12.17;9.90;;;;;;;-145.94;62.37;76561.75;5115571;28;20185;-67
2023/06/25 02:58:55;;;;;;;10.20;9.60;;;;;;;-145.94;62.68;76557.69;5115713;28;20185;-67
2023/06/25 03:01:22;;;;;;;10.20;9.67;;;;;;;-145.94;62.30;76559.72;5097123;28;20213;-67
2023/06/25 03:03:48;;;;;;;9.20;8.80;;;;;;;-145.94;62.76;76567.88;5097057;28;20196;-67
2023/06/25 03:06:15;;;;;;;9.60;9.10;;;;;;;-145.94;62.82;76551.56;5097035;28;20193;-67
2023/06/25 03:08:41;;;;;;;9.10;8.37;;;;;;;-145.94;63.39;76555.66;5096834;28;20196;-67
2023/06/25 03:11:09;;;;;;;9.07;8.67;;;;;;;-145.94;63.15;76553.59;5096875;28;20623;-67
2023/06/25 03:13:35;;;;;;;8.87;8.47;;;;;;;-145.94;63.29;76555.66;5096868;28;20200;-67
2023/06/25 03:16:02;;;;;;;9.07;8.67;;;;;;;-145.94;63.13;76563.81;5096835;28;20194;-67
2023/06/25 03:18:28;;;;;;;10.00;9.33;;;;;;;-145.94;63.11;76555.66;5096820;28;20212;-67
2023/06/25 03:20:54;;;;;;;10.00;9.57;;;;;;;-145.94;63.02;76555.66;5115172;28;20213;-67
2023/06/25 03:23:21;;;;;;;9.17;8.67;;;;;;;-145.94;62.76;76561.75;5096765;28;20639;-67
2023/06/25 03:25:49;;;;;;;8.33;7.90;;;;;;;-145.94;63.08;76559.72;5096724;28;20193;-67
2023/06/25 03:28:22;;;;;;;9.47;8.90;;;;;;;-145.94;63.15;76565.84;5096686;28;20245;-67
2023/06/25 03:30:49;;;;;;;10.97;10.03;;;;;;;-145.94;62.85;76565.84;5096537;28;20221;-68
2023/06/25 03:33:17;;;;;;;11.00;10.10;;;;;;;-145.94;63.16;76571.97;5096551;28;20227;-68
2023/06/25 03:35:44;;;;;;;10.93;9.70;;;;;;;-145.94;63.55;76571.97;5114766;28;20189;-67
2023/06/25 03:38:11;;;;;;;9.47;8.93;;;;;;;-145.94;63.05;76576.03;5114744;28;20674;-67
2023/06/25 03:40:38;;;;;;;11.37;10.67;;;;;;;-145.94;63.17;76571.97;5097082;28;20217;-68
2023/06/25 03:43:05;;;;;;;10.77;9.97;;;;;;;-145.94;62.86;76569.91;5096382;28;20195;-67
2023/06/25 03:45:33;;;;;;;9.77;9.00;;;;;;;-145.94;63.26;76571.97;5096289;28;20286;-67
2023/06/25 03:48:00;;;;;;;10.63;10.03;;;;;;;-145.94;63.02;76563.81;5096896;28;20279;-67
2023/06/25 03:50:27;;;;;;;10.60;10.07;;;;;;;-145.94;63.18;76563.81;5114664;28;20197;-68
2023/06/25 03:52:55;;;;;;;10.13;9.63;;;;;;;-145.94;62.74;76557.69;5096145;28;20196;-67
2023/06/25 03:55:21;;;;;;;10.87;9.77;;;;;;;-145.94;62.46;76553.59;5079432;28;20193;-67
2023/06/25 03:57:50;;;;;;;9.27;8.67;;;;;;;-145.94;62.36;76557.69;5096177;28;20656;-67
2023/06/25 04:00:16;;;;;;;10.47;8.67;;;;;;;-145.94;62.28;76553.59;5095877;28;20235;-67
2023/06/25 04:02:43;;;;;;;9.97;9.23;;;;;;;-145.94;62.50;76555.66;5114481;28;20288;-67
2023/06/25 04:05:11;;;;;;;9.00;8.20;;;;;;;-145.94;62.19;76551.56;5096528;28;20195;-67
2023/06/25 04:07:37;;;;;;;9.93;8.87;;;;;;;-145.94;62.21;76559.72;5095935;28;20601;-67
2023/06/25 04:10:04;;;;;;;9.73;9.17;;;;;;;-145.94;62.45;76567.88;5095832;28;20204;-67
2023/06/25 04:12:31;;;;;;;10.93;9.90;;;;;;;-145.94;62.61;76561.75;5114635;28;20219;-67
2023/06/25 04:14:59;;;;;;;11.07;10.37;;;;;;;-145.94;62.39;76545.44;5096616;28;20192;-67
2023/06/25 04:17:26;;;;;;;9.77;9.30;;;;;;;-145.94;62.09;76541.38;5114303;28;20181;-67
2023/06/25 04:19:53;;;;;;;10.77;9.97;;;;;;;-145.94;62.22;76531.19;5095093;28;20225;-67
2023/06/25 04:22:19;;;;;;;10.37;9.87;;;;;;;-145.94;62.00;76529.13;5113967;28;20601;-67
2023/06/25 04:24:46;;;;;;;9.73;9.33;;;;;;;-145.94;62.17;76518.94;5095673;28;20189;-67
2023/06/25 04:27:13;;;;;;;11.40;10.33;;;;;;;-145.94;62.10;76512.81;5095590;28;20232;-67
2023/06/25 04:29:40;;;;;;;9.77;9.47;;;;;;;-145.94;61.82;76506.72;5095538;28;20216;-68
2023/06/25 04:32:07;;;;;;;10.10;9.53;;;;;;;-145.94;61.86;76496.50;5095659;28;20189;-67
2023/06/25 04:34:35;;;;;;;10.37;9.83;;;;;;;-145.94;61.58;76488.34;5095538;28;20234;-67
2023/06/25 04:37:02;;;;;;;11.67;10.77;;;;;;;-145.94;61.60;76484.28;5095474;28;20193;-67
2023/06/25 04:39:29;;;;;;;9.37;8.90;;;;;;;-145.94;61.56;76467.97;5095868;28;20209;-67
2023/06/25 04:41:58;;;;;;;10.20;9.40;;;;;;;-145.94;61.25;76465.94;5095464;28;20209;-67
2023/06/25 04:44:25;;;;;;;12.07;10.53;;;;;;;-145.94;61.16;76459.81;5095680;28;20204;-67
2023/06/25 04:46:52;;;;;;;9.07;8.67;;;;;;;-145.94;61.03;76449.63;5095399;28;20185;-67
2023/06/25 04:49:18;;;;;;;10.93;10.13;;;;;;;-145.94;60.53;76441.47;5095641;28;20191;-68
2023/06/25 04:51:45;;;;;;;9.33;8.87;;;;;;;-145.94;60.76;76431.28;5114199;28;20519;-65
2023/06/25 04:54:13;;;;;;;8.97;8.23;;;;;;;-145.94;60.64;76431.28;5113608;28;20532;-66
2023/06/25 04:56:39;;;;;;;10.30;9.77;;;;;;;-145.94;60.72;76425.16;5113865;28;20709;-67
2023/06/25 04:59:05;;;;;;;10.23;9.63;;;;;;;-145.94;60.39;76414.94;5113850;28;20194;-67
2023/06/25 05:01:32;;;;;;;11.43;10.73;;;;;;;-145.94;60.30;76412.91;5113483;28;20232;-66
2023/06/25 05:03:59;;;;;;;11.27;10.40;;;;;;;-145.94;60.41;76396.59;5113521;28;20191;-66
2023/06/25 05:06:26;;;;;;;10.60;9.73;;;;;;;-145.94;60.28;76384.38;5113476;28;20195;-66
2023/06/25 05:08:52;;;;;;;10.47;9.80;;;;;;;-145.94;59.88;76370.09;5114029;28;20242;-66
2023/06/25 05:11:18;;;;;;;9.50;9.00;;;;;;;-145.94;59.83;76363.97;5113618;28;20212;-66
2023/06/25 05:13:45;;;;;;;10.80;10.13;;;;;;;-145.94;60.02;76355.81;5113427;28;20528;-66
2023/06/25 05:16:11;;;;;;;9.80;9.30;;;;;;;-145.94;59.63;76349.72;5113415;28;20238;-66
2023/06/25 05:18:39;;;;;;;11.00;10.10;;;;;;;-145.94;58.81;76347.66;5113430;28;20241;-66
2023/06/25 05:21:06;;;;;;;10.67;9.97;;;;;;;-145.94;58.82;76331.34;5113226;28;20763;-66
2023/06/25 05:23:43;;;;;;;9.47;8.70;;;;;;;-145.94;58.52;76321.16;5113388;28;20193;-66
2023/06/25 05:26:13;;;;;;;9.90;9.50;;;;;;;-145.94;58.21;76310.97;5113956;28;20173;-66
2023/06/25 05:28:39;;;;;;;10.27;9.60;;;;;;;-145.94;58.69;76296.69;5113348;28;20189;-66
2023/06/25 05:31:06;;;;;;;9.87;9.30;;;;;;;-145.94;58.79;76280.38;5113405;28;20227;-66
2023/06/25 05:33:32;;;;;;;10.07;9.50;;;;;;;-145.94;58.28;76270.19;5116241;28;20211;-66
2023/06/25 05:35:59;;;;;;;8.93;8.40;;;;;;;-145.94;57.94;76260.00;5117107;28;20177;-66
2023/06/25 05:38:25;;;;;;;12.87;9.13;;;;;;;-145.94;57.66;76239.59;5117115;28;20170;-66
2023/06/25 05:40:52;;;;;;;10.50;9.80;;;;;;;-145.94;57.61;76227.38;5117211;28;20612;-66
2023/06/25 05:43:18;;;;;;;10.93;10.00;;;;;;;-145.94;57.19;76213.09;5117813;28;20181;-66
2023/06/25 05:45:44;;;;;;;9.57;8.80;;;;;;;-145.94;56.87;76211.06;5116989;28;20210;-66
2023/06/25 05:48:11;;;;;;;9.33;8.93;;;;;;;-145.94;56.59;76200.88;5117478;28;20177;-67
2023/06/25 05:50:38;;;;;;;9.53;9.20;;;;;;;-145.94;56.43;76196.78;5117016;28;20557;-67
2023/06/25 05:53:04;;;;;;;9.50;8.90;;;;;;;-145.94;56.01;76190.69;5098946;28;20185;-67
2023/06/25 05:55:31;;;;;;;9.10;8.80;;;;;;;-145.94;55.70;76180.47;5116777;28;20178;-67
2023/06/25 05:57:57;;;;;;;9.60;9.10;;;;;;;-145.94;55.81;76176.41;5117294;28;20165;-67
2023/06/25 06:00:24;;;;;;;8.17;7.97;;;;;;;-145.94;55.71;76170.28;5116547;28;20213;-67
2023/06/25 06:02:50;;;;;;;9.57;8.97;;;;;;;-145.94;55.56;76158.06;5116913;28;20219;-67
2023/06/25 06:05:16;;;;;;;10.70;9.07;;;;;;;-145.94;55.93;76135.63;5117103;28;20174;-67
2023/06/25 06:07:43;;;;;;;12.97;10.33;;;;;;;-145.94;55.07;76131.56;5116517;28;20596;-67
2023/06/25 06:10:13;;;;;;;10.40;9.87;;;;;;;-145.94;54.41;76115.25;5116677;28;20683;-67
2023/06/25 06:12:40;;;;;;;10.10;9.40;;;;;;;-145.94;54.54;76103.00;5116460;28;20177;-66
2023/06/25 06:15:07;;;;;;;8.80;8.40;;;;;;;-145.94;54.53;76086.69;5116396;28;20199;-66
2023/06/25 06:17:33;;;;;;;9.90;9.20;;;;;;;-145.94;53.82;76064.25;5116860;28;20177;-66
2023/06/25 06:20:00;;;;;;;8.87;8.23;;;;;;;-145.94;53.17;76050.00;5116310;28;20217;-66
2023/06/25 06:22:26;;;;;;;9.83;8.53;;;;;;;-145.94;52.75;76041.84;5116686;28;20169;-67
2023/06/25 06:24:53;;;;;;;8.20;7.93;;;;;;;-145.94;52.66;76031.66;5116441;28;20553;-67
2023/06/25 06:27:19;;;;;;;8.30;8.00;;;;;;;-145.94;52.64;76015.34;5116137;28;20193;-67
2023/06/25 06:29:46;;;;;;;8.60;8.07;;;;;;;-145.94;52.15;75999.03;5115851;28;20212;-68
2023/06/25 06:32:12;;;;;;;8.40;7.90;;;;;;;-145.94;51.95;75986.78;5116035;28;20230;-68
2023/06/25 06:34:39;;;;;;;8.20;8.00;;;;;;;-145.94;51.39;75976.59;5115970;28;20181;-68
2023/06/25 06:37:05;;;;;;;8.33;8.03;;;;;;;-145.94;51.19;75968.44;5116202;28;20664;-67
2023/06/25 06:39:33;;;;;;;8.93;8.57;;;;;;;-145.94;50.93;75956.22;5116297;28;20185;-68
2023/06/25 06:41:59;;;;;;;7.97;7.67;;;;;;;-145.94;50.87;75946.03;5115789;28;20734;-67
2023/06/25 06:44:26;;;;;;;7.70;7.43;;;;;;;-145.94;50.67;75929.72;5115287;28;20242;-67
2023/06/25 06:46:52;;;;;;;8.60;8.20;;;;;;;-145.94;50.27;75915.44;5115745;28;20181;-67
2023/06/25 06:49:22;;;;;;;8.50;8.20;;;;;;;-145.94;50.24;75905.25;5115697;28;20196;-67
2023/06/25 06:51:48;;;;;;;9.23;8.73;;;;;;;-145.94;50.44;75895.06;5115936;28;20186;-68
2023/06/25 06:54:14;;;;;;;8.33;7.83;;;;;;;-145.94;50.36;75882.81;5115878;28;20682;-67
2023/06/25 06:56:41;;;;;;;7.37;7.07;;;;;;;-145.94;50.31;75870.59;5115842;28;20180;-67
2023/06/25 06:59:07;;;;;;;8.60;8.17;;;;;;;-145.94;49.97;75856.31;5115567;28;20192;-67
2023/06/25 07:01:34;;;;;;;7.57;7.43;;;;;;;-145.94;49.63;75848.16;5115904;28;20216;-67
2023/06/25 07:04:01;;;;;;;7.93;7.63;;;;;;;-145.94;49.55;75837.97;5115419;28;20234;-67
2023/06/25 07:06:27;;;;;;;8.00;7.70;;;;;;;-145.94;49.77;75827.78;5115626;28;20248;-67
2023/06/25 07:08:54;;;;;;;8.55;7.88;;;;;;;-145.94;49.98;75811.47;5115626;28;20540;-67
2023/06/25 07:11:20;;;;;;;7.55;7.00;;;;;;;-145.94;49.67;75797.19;5115248;28;20594;-67
2023/06/25 07:13:47;;;;;;;8.05;7.75;;;;;;;-145.94;49.62;75784.97;5115216;28;20193;-67
2023/06/25 07:16:13;;;;;;;7.75;7.57;;;;;;;-145.94;49.21;75774.78;5115487;28;20234;-67
2023/06/25 07:18:40;;;;;;;7.30;7.00;;;;;;;-145.94;48.83;75764.56;5115422;28;20181;-67
2023/06/25 07:21:07;;;;;;;7.28;7.18;;;;;;;-145.94;48.43;75752.34;5114956;28;20213;-68
2023/06/25 07:23:35;;;;;;;6.82;6.70;;;;;;;-145.94;48.24;75742.16;5115335;28;20185;-67
2023/06/25 07:26:03;;;;;;;7.10;6.90;;;;;;;-145.94;47.70;75742.16;5114991;28;20190;-67
2023/06/25 07:28:30;;;;;;;6.68;6.57;;;;;;;-145.94;47.14;75731.97;5115132;28;20189;-67
2023/06/25 07:30:56;;;;;;;6.53;6.43;;;;;;;-145.94;46.46;75723.81;5114751;28;20296;-68
2023/06/25 07:33:23;;;;;;;7.03;6.93;;;;;;;-145.94;47.15;75705.47;5115106;28;20234;-67
2023/06/25 07:35:49;;;;;;;6.75;6.65;;;;;;;-145.94;46.28;75703.41;5115370;28;20184;-68
2023/06/25 07:38:16;;;;;;;7.07;6.85;;;;;;;-145.94;45.88;75695.25;5114762;28;20189;-68
2023/06/25 07:40:42;;;;;;;6.47;6.10;;;;;;;-145.94;45.91;75689.16;5114591;28;20609;-67
2023/06/25 07:43:09;;;;;;;7.43;7.20;;;;;;;-145.94;46.38;75687.13;5114934;28;20647;-67
2023/06/25 07:45:35;;;;;;;6.65;6.28;;;;;;;-145.94;46.68;75678.97;5114571;28;20184;-67
2023/06/25 07:48:02;;;;;;;6.03;5.93;;;;;;;-145.94;46.30;75664.69;5096457;28;20216;-67
2023/06/25 07:50:29;;;;;;;6.63;6.53;;;;;;;-145.94;45.79;75648.38;5114391;28;20210;-67
2023/06/25 07:52:55;;;;;;;7.25;6.88;;;;;;;-145.94;45.21;75638.19;5115014;28;20643;-67
2023/06/25 07:55:22;;;;;;;6.57;6.47;;;;;;;-145.94;45.24;75619.84;5114181;28;20177;-67
2023/06/25 07:57:48;;;;;;;7.40;6.78;;;;;;;-145.94;45.65;75607.59;5114663;28;20189;-67
2023/06/25 08:00:15;;;;;;;6.35;6.25;;;;;;;-145.94;45.84;75601.50;5114185;28;20262;-67
2023/06/25 08:02:41;;;;;;;6.47;6.07;;;;;;;-145.94;45.74;75589.25;5114560;28;20677;-67
2023/06/25 08:05:08;;;;;;;8.23;6.72;;;;;;;-145.94;45.47;75577.03;5114209;28;20182;-67
2023/06/25 08:07:34;;;;;;;6.30;5.93;;;;;;;-145.94;44.68;75562.75;5114503;28;20189;-67
2023/06/25 08:10:02;;;;;;;7.13;6.82;;;;;;;-145.94;43.13;75550.53;5114402;28;20708;-68
2023/06/25 08:12:28;;;;;;;5.80;5.65;;;;;;;-145.94;42.82;75538.28;5114363;28;20185;-67
2023/06/25 08:14:55;;;;;;;6.30;6.13;;;;;;;-145.94;42.73;75532.19;5114899;28;20589;-67
2023/06/25 08:17:21;;;;;;;6.28;6.18;;;;;;;-145.94;42.64;75517.91;5114073;28;20237;-67
2023/06/25 08:19:48;;;;;;;5.43;5.32;;;;;;;-145.94;42.93;75511.78;5113935;28;20205;-68
2023/06/25 08:22:14;;;;;;;6.07;5.45;;;;;;;-145.94;42.09;75501.59;5114214;28;20222;-67
2023/06/25 08:24:40;;;;;;;5.13;4.90;;;;;;;-145.94;40.80;75487.34;5114247;28;20192;-67
2023/06/25 08:27:07;;;;;;;5.97;5.45;;;;;;;-145.94;41.63;75473.06;5114313;28;20581;-67
2023/06/25 08:29:34;;;;;;;6.18;5.97;;;;;;;-145.94;40.67;75456.75;5114117;28;20536;-68
2023/06/25 08:32:00;;;;;;;5.82;5.63;;;;;;;-145.94;39.83;75448.59;5113853;28;20189;-67
2023/06/25 08:34:27;;;;;;;5.93;5.68;;;;;;;-145.94;38.84;75432.28;5113865;28;20188;-68
2023/06/25 08:36:53;;;;;;;5.80;5.43;;;;;;;-145.94;37.91;75432.28;5113740;28;20193;-68
2023/06/25 08:39:20;;;;;;;5.82;5.72;;;;;;;-145.94;37.64;75440.44;5114183;28;20243;-68
2023/06/25 08:41:48;;;;;;;5.40;5.30;;;;;;;-145.94;37.65;75426.19;5113596;28;20706;-67
2023/06/25 08:44:15;;;;;;;5.88;5.65;;;;;;;-145.94;36.67;75418.03;5114483;28;20674;-67
2023/06/25 08:46:49;;;;;;;5.55;5.07;;;;;;;-145.94;36.70;75424.13;5114197;28;20648;-67
2023/06/25 08:49:18;;;;;;;5.78;4.82;;;;;;;-145.94;36.86;75409.88;5113960;28;20180;-67
2023/06/25 08:51:45;;;;;;;5.72;5.15;;;;;;;-145.94;37.26;75405.78;5113581;28;20184;-67
2023/06/25 08:54:11;;;;;;;5.57;5.47;;;;;;;-145.94;36.83;75391.53;5113628;28;20185;-67
2023/06/25 08:56:39;;;;;;;5.45;5.35;;;;;;;-145.94;36.17;75377.25;5113563;28;20192;-67
2023/06/25 08:59:06;;;;;;;6.35;5.50;;;;;;;-145.94;36.13;75369.09;5113879;28;20627;-67
2023/06/25 09:01:32;;;;;;;5.20;5.10;;;;;;;-145.94;36.54;75356.88;5113472;28;20205;-67
2023/06/25 09:03:58;;;;;;;6.07;5.78;;;;;;;-145.94;37.66;75360.94;5113555;28;20185;-67
2023/06/25 09:06:26;;;;;;;4.78;4.78;;;;;;;-145.94;35.76;75363.00;5114915;28;20558;-67
2023/06/25 09:08:53;;;;;;;5.50;5.20;;;;;;;-145.94;35.47;75354.84;5117630;28;20181;-67
2023/06/25 09:11:19;;;;;;;5.15;5.05;;;;;;;-145.94;35.02;75344.63;5117662;28;20196;-67
2023/06/25 09:13:45;;;;;;;5.50;5.40;;;;;;;-145.94;34.35;75346.69;5117831;28;20560;-67
2023/06/25 09:16:12;;;;;;;5.88;5.78;;;;;;;-145.94;35.55;75350.75;5117542;28;20610;-67
2023/06/25 09:18:38;;;;;;;6.03;5.93;;;;;;;-145.94;35.09;75352.78;5117503;28;20186;-67
2023/06/25 09:21:08;;;;;;;6.13;5.90;;;;;;;-145.94;35.54;75344.63;5117581;28;20658;-67
2023/06/25 09:23:37;;;;;;;5.72;5.57;;;;;;;-145.94;34.18;75318.13;5117671;28;20197;-67
2023/06/25 09:26:06;;;;;;;4.90;4.90;;;;;;;-145.94;34.86;75328.34;5117576;28;20189;-67
2023/06/25 09:28:42;;;;;;;6.13;5.93;;;;;;;-145.94;34.57;75289.59;5117394;28;20248;-67
2023/06/25 09:31:08;;;;;;;5.47;5.38;;;;;;;-145.94;34.36;75285.53;5117394;28;20212;-67
2023/06/25 09:33:35;;;;;;;5.70;5.50;;;;;;;-145.94;33.82;75277.38;5117217;28;20209;-67
2023/06/25 09:36:03;;;;;;;5.35;5.35;;;;;;;-145.94;34.31;75285.53;5117146;28;20655;-67
2023/06/25 09:38:51;;;;;;;5.55;5.40;;;;;;;-145.94;34.72;75275.34;5117631;28;20257;-67
2023/06/25 09:41:21;;;;;;;5.35;5.25;;;;;;;-145.94;33.90;75279.41;5116920;28;20208;-67
2023/06/25 09:43:49;;;;;;;5.07;4.97;;;;;;;-145.94;35.29;75275.34;5117000;28;20189;-67
2023/06/25 09:46:19;;;;;;;5.03;4.93;;;;;;;-145.94;35.43;75246.78;5117197;28;20588;-67
2023/06/25 09:48:47;;;;;;;5.40;5.30;;;;;;;-145.94;35.29;75248.84;5116862;28;20189;-67
2023/06/25 09:51:14;;;;;;;5.20;5.10;;;;;;;-145.94;34.69;75252.91;5116763;28;20295;-67
2023/06/25 09:53:43;;;;;;;6.10;5.90;;;;;;;-145.94;34.67;75240.69;5116809;28;20189;-67
2023/06/25 09:56:11;;;;;;;5.57;5.25;;;;;;;-145.94;32.85;75226.41;5099309;28;20197;-67
2023/06/25 09:58:38;;;;;;;5.28;5.00;;;;;;;-145.94;33.81;75238.66;5116965;28;20264;-67
2023/06/25 10:01:04;;;;;;;5.57;5.30;;;;;;;-145.94;33.84;75226.41;5116611;28;20208;-67
2023/06/25 10:03:31;;;;;;;5.75;5.65;;;;;;;-145.94;32.36;75220.31;5117202;28;20192;-67
2023/06/25 10:05:58;;;;;;;5.03;4.93;;;;;;;-145.94;33.85;75220.31;5116547;28;20181;-67
2023/06/25 10:08:26;;;;;;;4.53;4.53;;;;;;;-145.94;34.16;75218.25;5116508;28;20277;-67
2023/06/25 10:10:58;;;;;;;5.05;4.80;;;;;;;-145.94;33.58;75208.06;5116681;28;20205;-67
2023/06/25 10:13:25;;;;;;;5.10;5.03;;;;;;;-145.94;33.40;75191.75;5116573;28;20616;-67
2023/06/25 10:15:58;;;;;;;5.57;5.18;;;;;;;-145.94;34.01;75185.66;5116454;28;20185;-67
2023/06/25 10:18:25;;;;;;;5.38;5.28;;;;;;;-145.94;34.61;75163.22;5115423;28;20188;-67
2023/06/25 10:20:57;;;;;;;6.05;5.95;;;;;;;-145.94;33.27;75175.47;5116246;28;20219;-67
2023/06/25 10:23:24;;;;;;;5.10;5.00;;;;;;;-145.94;34.55;75181.56;5116564;28;20646;-67
2023/06/25 10:25:56;;;;;;;4.88;4.78;;;;;;;-145.94;33.66;75159.16;5116478;28;20256;-67
2023/06/25 10:28:34;;;;;;;5.35;5.35;;;;;;;-145.94;33.82;75159.16;5116174;28;20189;-67
2023/06/25 10:31:13;;;;;;;5.30;5.20;;;;;;;-145.94;33.90;75153.03;5115940;28;20209;-67
2023/06/25 10:33:39;;;;;;;4.63;4.63;;;;;;;-145.94;33.66;75142.84;5116297;28;20204;-67
2023/06/25 10:36:10;;;;;;;5.15;5.15;;;;;;;-145.94;34.55;75142.84;5116016;28;20207;-67
2023/06/25 10:38:37;;;;;;;5.38;5.38;;;;;;;-145.94;33.85;75124.50;5116286;28;20234;-67
2023/06/25 10:41:04;;;;;;;5.35;5.03;;;;;;;-145.94;33.97;75089.84;5116575;28;20317;-67
2023/06/25 10:43:31;;;;;;;5.13;5.03;;;;;;;-145.94;33.99;75085.78;5115916;28;20189;-67
2023/06/25 10:45:57;;;;;;;4.95;4.72;;;;;;;-145.94;33.69;75098.00;5116355;28;20583;-67
2023/06/25 10:48:24;;;;;;;5.28;4.78;;;;;;;-145.94;34.89;75073.53;5115791;28;20169;-67
2023/06/25 10:50:52;;;;;;;4.57;4.57;;;;;;;-145.94;32.81;75071.50;5115555;28;20588;-68
2023/06/25 10:53:21;;;;;;;4.82;4.82;;;;;;;-145.94;34.02;75075.56;5115885;28;20185;-67
2023/06/25 10:55:53;;;;;;;4.85;4.75;;;;;;;-145.94;33.53;75075.56;5116405;28;20538;-67
2023/06/25 10:58:21;;;;;;;5.32;5.22;;;;;;;-145.94;33.05;75063.34;5116155;28;20162;-67
2023/06/25 11:00:58;;;;;;;4.90;4.80;;;;;;;-145.94;33.90;75055.19;5115335;28;20216;-68
2023/06/25 11:03:25;;;;;;;5.13;5.03;;;;;;;-145.94;35.09;75024.63;5115962;28;20169;-68
2023/06/25 11:05:52;;;;;;;4.72;4.72;;;;;;;-145.94;33.22;75026.66;5115964;28;20249;-67
2023/06/25 11:08:24;;;;;;;5.38;5.38;;;;;;;-145.94;32.80;75047.03;5115552;28;20616;-67
2023/06/25 11:10:50;;;;;;;5.25;5.15;;;;;;;-145.94;32.19;75069.47;5115285;28;20557;-67
2023/06/25 11:13:17;;;;;;;5.20;5.18;;;;;;;-145.94;33.18;75059.28;5115561;28;20195;-67
2023/06/25 11:15:44;;;;;;;4.60;4.60;;;;;;;-145.94;32.09;75065.38;5115174;28;20178;-67